Time,TemperatureF,DewpointF,PressureIn,WindDirection,WindDirectionDegrees,WindSpeedMPH,WindSpeedGustMPH,Humidity,HourlyPrecipIn,Conditions,Clouds,dailyrainin,SoftwareType,DateUTC
2013-03-04 00:00:00,22.0,1.0,-100.00,North,-999,-999.0,-999.0,39,0.00,,,-99.99,,2013-03-04 08:00:00,
2013-03-04 00:52:00,22.0,1.0,-100.00,North,-999,-999.0,-999.0,39,0.00,,,-99.99,,2013-03-04 08:52:00,
2013-03-04 01:00:00,22.0,4.0,-100.00,North,-999,-999.0,-999.0,46,0.00,,,-99.99,,2013-03-04 09:00:00,
2013-03-04 02:00:00,20.0,4.0,-100.00,North,-999,-999.0,-999.0,49,0.00,,,-99.99,,2013-03-04 10:00:00,
2013-03-04 03:00:00,18.0,6.0,-100.00,North,-999,-999.0,-999.0,58,0.00,,,-99.99,,2013-03-04 11:00:00,
2013-03-04 03:52:00,18.0,6.0,-100.00,North,-999,-999.0,-999.0,58,0.00,,,-99.99,,2013-03-04 11:52:00,
2013-03-04 04:00:00,19.0,11.0,-100.00,North,-999,-999.0,-999.0,70,0.00,,,-99.99,,2013-03-04 12:00:00,
2013-03-04 05:00:00,20.0,13.0,-100.00,North,-999,-999.0,-999.0,73,0.00,,,-99.99,,2013-03-04 13:00:00,
2013-03-04 06:00:00,19.0,10.0,-100.00,North,-999,-999.0,-999.0,68,0.00,,,-99.99,,2013-03-04 14:00:00,
2013-03-04 07:00:00,20.0,9.0,-100.00,North,-999,-999.0,-999.0,61,0.00,,,-99.99,,2013-03-04 15:00:00,
2013-03-04 08:00:00,22.0,9.0,-100.00,North,-999,-999.0,-999.0,56,0.00,,,-99.99,,2013-03-04 16:00:00,
2013-03-04 11:00:00,30.0,10.0,-100.00,North,-999,-999.0,-999.0,43,0.00,,,-99.99,,2013-03-04 19:00:00,
2013-03-04 12:00:00,32.0,9.0,-100.00,North,-999,-999.0,-999.0,38,0.00,,,-99.99,,2013-03-04 20:00:00,
2013-03-04 13:00:00,32.0,11.0,-100.00,North,-999,-999.0,-999.0,41,0.00,,,-99.99,,2013-03-04 21:00:00,
2013-03-04 14:00:00,32.0,12.0,-100.00,North,-999,-999.0,-999.0,42,0.00,,,-99.99,,2013-03-04 22:00:00,
2013-03-04 14:52:00,32.0,12.0,-100.00,North,-999,-999.0,-999.0,42,0.00,,,-99.99,,2013-03-04 22:52:00,
2013-03-04 15:00:00,33.0,13.0,-100.00,North,-999,-999.0,-999.0,43,0.00,,,-99.99,,2013-03-04 23:00:00,
2013-03-04 16:00:00,31.0,12.0,-100.00,North,-999,-999.0,-999.0,45,0.00,,,-99.99,,2013-03-05 00:00:00,
2013-03-04 17:00:00,30.0,14.0,-100.00,North,-999,-999.0,-999.0,50,0.00,,,-99.99,,2013-03-05 01:00:00,
2013-03-04 18:00:00,29.0,14.0,-100.00,North,-999,-999.0,-999.0,53,0.00,,,-99.99,,2013-03-05 02:00:00,
2013-03-04 18:52:00,29.0,14.0,-100.00,North,-999,-999.0,-999.0,53,0.00,,,-99.99,,2013-03-05 02:52:00,
2013-03-04 19:00:00,27.0,15.0,-100.00,North,-999,-999.0,-999.0,60,0.00,,,-99.99,,2013-03-05 03:00:00,
2013-03-04 20:00:00,28.0,14.0,-100.00,North,-999,-999.0,-999.0,56,0.00,,,-99.99,,2013-03-05 04:00:00,
2013-03-04 21:00:00,28.0,15.0,-100.00,North,-999,-999.0,-999.0,58,0.00,,,-99.99,,2013-03-05 05:00:00,
2013-03-04 22:00:00,30.0,17.0,-100.00,North,-999,-999.0,-999.0,58,0.00,,,-99.99,,2013-03-05 06:00:00,
2013-03-04 22:52:00,30.0,17.0,-100.00,North,-999,-999.0,-999.0,58,0.00,,,-99.99,,2013-03-05 06:52:00,
2013-03-04 23:00:00,30.0,17.0,-100.00,North,-999,-999.0,-999.0,58,0.00,,,-99.99,,2013-03-05 07:00:00,
2013-03-04 23:52:00,30.0,17.0,-100.00,North,-999,-999.0,-999.0,58,0.00,,,-99.99,,2013-03-05 07:52:00,